Time;durP1;ratioP1;P1;durP2;ratioP2;P2;SDS_P1;SDS_P2;PMS_P1;PMS_P2;Temp;Humidity;BMP_temperature;BMP_pressure;BME280_temperature;BME280_humidity;BME280_pressure;Samples;Min_cycle;Max_cycle;Signal;HPM_P1;HPM_P2
2023/04/13 00:00:52;;;;;;;9.40;6.40;;;;;;;9.42;100.00;98612.67;110291;1277;22276;-70
2023/04/13 00:03:20;;;;;;;8.50;5.90;;;;;;;9.37;100.00;98617.41;110301;1277;22244;-70
2023/04/13 00:05:51;;;;;;;9.20;5.50;;;;;;;9.38;100.00;98620.48;110254;1263;22212;-69
2023/04/13 00:08:23;;;;;;;7.90;5.70;;;;;;;9.41;100.00;98622.35;110311;1277;23288;-70
2023/04/13 00:10:56;;;;;;;9.20;5.60;;;;;;;9.39;100.00;98626.98;110248;1276;22452;-70
2023/04/13 00:13:24;;;;;;;9.60;5.30;;;;;;;9.42;100.00;98629.72;110275;1276;22637;-70
2023/04/13 00:15:54;;;;;;;8.70;5.20;;;;;;;9.47;100.00;98637.70;110239;1276;22249;-71
2023/04/13 00:18:24;;;;;;;9.20;5.70;;;;;;;9.48;100.00;98641.33;110297;1276;22478;-70
2023/04/13 00:20:53;;;;;;;10.90;5.40;;;;;;;9.47;100.00;98644.92;110037;1276;23987;-70
2023/04/13 00:23:21;;;;;;;10.20;5.10;;;;;;;9.50;100.00;98644.57;109920;1277;22560;-70
2023/04/13 00:25:55;;;;;;;9.60;4.80;;;;;;;9.55;100.00;98653.25;107339;1276;22549;-70
2023/04/13 00:28:24;;;;;;;9.30;5.30;;;;;;;9.56;100.00;98652.05;107331;1276;25499;-69
2023/04/13 00:30:54;;;;;;;8.70;5.60;;;;;;;9.51;100.00;98647.05;107532;1276;23406;-70
2023/04/13 00:33:23;;;;;;;7.30;5.20;;;;;;;9.49;100.00;98651.10;107314;1276;22519;-70
2023/04/13 00:35:51;;;;;;;10.60;5.40;;;;;;;9.49;100.00;98652.17;109704;1273;23046;-69
2023/04/13 00:38:22;;;;;;;8.50;5.20;;;;;;;9.49;100.00;98652.61;110312;1276;22196;-69
2023/04/13 00:40:54;;;;;;;6.20;4.50;;;;;;;9.47;100.00;98648.61;110258;1277;22218;-69
2023/04/13 00:43:22;;;;;;;7.80;5.00;;;;;;;9.47;100.00;98652.69;110266;1276;22630;-69
2023/04/13 00:45:51;;;;;;;8.60;5.00;;;;;;;9.48;100.00;98652.36;110299;1276;22386;-69
2023/04/13 00:48:26;;;;;;;8.70;4.90;;;;;;;9.48;100.00;98650.61;110239;1277;22304;-70
2023/04/13 00:50:54;;;;;;;9.30;5.10;;;;;;;9.48;100.00;98646.70;110072;1277;22213;-69
2023/04/13 00:53:23;;;;;;;10.70;5.40;;;;;;;9.52;100.00;98643.92;110271;1278;22300;-69
2023/04/13 00:55:52;;;;;;;8.70;4.90;;;;;;;9.57;100.00;98646.23;110095;1276;22202;-70
2023/04/13 00:58:21;;;;;;;8.50;5.00;;;;;;;9.56;100.00;98641.19;110258;1276;22491;-70
2023/04/13 01:00:49;;;;;;;8.50;5.20;;;;;;;9.49;100.00;98632.72;110219;1270;22407;-69
2023/04/13 01:03:20;;;;;;;10.30;5.30;;;;;;;9.48;100.00;98626.55;110266;1277;22279;-69
2023/04/13 01:05:54;;;;;;;8.60;5.40;;;;;;;9.47;100.00;98621.98;110250;1270;22414;-70
2023/04/13 01:08:26;;;;;;;9.70;5.00;;;;;;;9.46;100.00;98621.52;110048;1276;23058;-69
2023/04/13 01:10:58;;;;;;;13.00;4.90;;;;;;;9.45;100.00;98620.62;110126;1276;22481;-69
2023/04/13 01:13:55;;;;;;;10.70;5.10;;;;;;;9.45;100.00;98618.27;110068;1276;22366;-69
2023/04/13 01:16:27;;;;;;;10.40;5.50;;;;;;;9.43;100.00;98612.59;110119;1278;22189;-70
2023/04/13 01:18:56;;;;;;;9.50;4.80;;;;;;;9.39;100.00;98611.66;109965;1276;22295;-70
2023/04/13 01:21:28;;;;;;;9.80;5.30;;;;;;;9.37;100.00;98611.05;110066;1278;22256;-70
2023/04/13 01:24:15;;;;;;;6.50;5.00;;;;;;;9.35;100.00;98611.23;110176;1276;22288;-69
2023/04/13 01:26:50;;;;;;;;;;;;;;;9.34;100.00;98616.84;110099;1276;23137;-69
2023/04/13 01:29:19;;;;;;;12.00;5.00;;;;;;;9.29;100.00;98625.64;110157;1275;22313;-69
2023/04/13 01:31:48;;;;;;;11.60;5.00;;;;;;;9.22;100.00;98628.11;110068;1276;22420;-69
2023/04/13 01:34:17;;;;;;;8.10;4.70;;;;;;;9.26;100.00;98627.05;110233;1274;22191;-69
2023/04/13 01:36:47;;;;;;;7.30;4.60;;;;;;;9.31;100.00;98625.84;110279;1274;22389;-69
2023/04/13 01:39:19;;;;;;;10.50;5.00;;;;;;;9.32;100.00;98629.02;110284;1274;22412;-69
2023/04/13 01:41:50;;;;;;;11.30;5.20;;;;;;;9.29;100.00;98636.89;110267;1276;22399;-70
2023/04/13 01:44:18;;;;;;;7.30;4.60;;;;;;;9.32;100.00;98636.20;110311;1270;22355;-69
2023/04/13 01:46:48;;;;;;;11.00;4.40;;;;;;;9.36;100.00;98627.46;110154;1276;22920;-70
2023/04/13 01:49:38;;;;;;;6.90;4.80;;;;;;;9.33;100.00;98620.05;110237;1260;22403;-69
2023/04/13 01:52:19;;;;;;;10.90;4.80;;;;;;;9.26;100.00;98620.46;110186;1273;22209;-69
2023/04/13 01:54:48;;;;;;;7.40;4.70;;;;;;;9.28;100.00;98627.61;107864;1269;22644;-70
2023/04/13 01:57:17;;;;;;;8.40;4.70;;;;;;;9.30;100.00;98620.59;107914;1271;22635;-70
2023/04/13 01:59:47;;;;;;;8.30;4.60;;;;;;;9.27;100.00;98612.64;107477;1276;25360;-70
2023/04/13 02:02:19;;;;;;;9.10;4.60;;;;;;;9.30;100.00;98607.81;107400;1270;22689;-70
2023/04/13 02:04:49;;;;;;;7.60;4.20;;;;;;;9.31;100.00;98613.17;107549;1274;23289;-70
2023/04/13 02:07:18;;;;;;;7.80;4.60;;;;;;;9.27;100.00;98611.98;107438;1272;22575;-69
2023/04/13 02:09:49;;;;;;;11.20;4.10;;;;;;;9.28;100.00;98618.26;107520;1273;26474;-70
2023/04/13 02:12:19;;;;;;;8.50;4.20;;;;;;;9.29;100.00;98628.52;107464;1274;26615;-70
2023/04/13 02:14:49;;;;;;;9.00;4.20;;;;;;;9.28;100.00;98632.38;107555;1273;22511;-69
2023/04/13 02:17:18;;;;;;;6.70;4.10;;;;;;;9.27;100.00;98627.17;107605;1273;26613;-70
2023/04/13 02:19:47;;;;;;;7.20;3.90;;;;;;;9.27;100.00;98630.95;107629;1274;27569;-69
2023/04/13 02:22:18;;;;;;;7.90;4.20;;;;;;;9.26;100.00;98634.48;107603;1271;25446;-69
2023/04/13 02:24:49;;;;;;;7.30;4.20;;;;;;;9.20;100.00;98632.00;108245;1270;25319;-70
2023/04/13 02:27:18;;;;;;;7.50;3.80;;;;;;;9.19;100.00;98629.23;107405;1276;22618;-69
2023/04/13 02:29:46;;;;;;;7.50;4.00;;;;;;;9.20;100.00;98636.29;107438;1272;26730;-69
2023/04/13 02:32:21;;;;;;;7.90;4.30;;;;;;;9.22;100.00;98634.20;107607;1270;22516;-70
2023/04/13 02:34:50;;;;;;;8.70;4.00;;;;;;;9.19;100.00;98632.55;107566;1273;22550;-68
2023/04/13 02:37:19;;;;;;;7.20;4.00;;;;;;;9.22;100.00;98632.68;110301;1274;22162;-69
2023/04/13 02:39:49;;;;;;;8.00;3.70;;;;;;;9.28;100.00;98628.27;110374;1274;22427;-69
2023/04/13 02:42:19;;;;;;;7.40;3.60;;;;;;;9.28;100.00;98621.52;110322;1274;23147;-69
2023/04/13 02:44:48;;;;;;;10.40;3.90;;;;;;;9.24;100.00;98616.96;110366;1270;22403;-69
2023/04/13 02:47:17;;;;;;;8.40;4.10;;;;;;;9.24;100.00;98618.65;110308;1273;22661;-69
2023/04/13 02:49:47;;;;;;;8.30;4.30;;;;;;;9.25;100.00;98624.39;110335;1270;22387;-70
2023/04/13 02:52:36;;;;;;;11.80;5.40;;;;;;;9.26;100.00;98628.02;110358;1274;22885;-69
2023/04/13 02:55:08;;;;;;;8.80;5.10;;;;;;;9.20;100.00;98632.42;110303;1272;23034;-69
2023/04/13 02:58:08;;;;;;;8.20;4.70;;;;;;;9.21;100.00;98637.64;110182;1274;22389;-70
2023/04/13 03:00:37;;;;;;;11.90;5.00;;;;;;;9.23;100.00;98641.42;108153;1275;25281;-68
2023/04/13 03:03:19;;;;;;;9.10;4.70;;;;;;;9.19;100.00;98640.97;107621;1272;24176;-68
2023/04/13 03:05:50;;;;;;;10.60;5.00;;;;;;;9.10;100.00;98638.37;107439;1273;23351;-68
2023/04/13 03:08:26;;;;;;;8.80;4.30;;;;;;;9.07;100.00;98638.98;107644;1274;23239;-69
2023/04/13 03:11:15;;;;;;;9.20;4.40;;;;;;;9.09;100.00;98646.09;110316;1275;22270;-68
2023/04/13 03:13:52;;;;;;;10.40;4.00;;;;;;;9.06;100.00;98646.44;110335;1270;22468;-69
2023/04/13 03:16:21;;;;;;;7.70;4.10;;;;;;;9.09;100.00;98636.73;110319;1274;23236;-69
2023/04/13 03:18:54;;;;;;;6.30;3.60;;;;;;;9.14;100.00;98631.86;110336;1275;22970;-69
2023/04/13 03:21:23;;;;;;;11.90;4.50;;;;;;;9.16;100.00;98633.67;110253;1274;23175;-69
2023/04/13 03:24:00;;;;;;;8.90;4.00;;;;;;;9.14;100.00;98641.80;110398;1274;23272;-69
2023/04/13 03:26:29;;;;;;;9.00;4.50;;;;;;;9.15;100.00;98647.14;110291;1275;22375;-69
2023/04/13 03:29:00;;;;;;;7.20;3.90;;;;;;;9.17;100.00;98657.77;110387;1275;23963;-69
2023/04/13 03:31:29;;;;;;;5.50;4.00;;;;;;;9.19;100.00;98663.28;110281;1273;22221;-69
2023/04/13 03:33:59;;;;;;;7.70;4.20;;;;;;;9.16;100.00;98663.83;110294;1274;22521;-69
2023/04/13 03:36:28;;;;;;;9.00;4.30;;;;;;;9.17;100.00;98667.82;110311;1270;22283;-69
2023/04/13 03:38:57;;;;;;;8.70;4.20;;;;;;;9.22;100.00;98663.86;110314;1276;22267;-69
2023/04/13 03:41:26;;;;;;;10.50;4.30;;;;;;;9.23;100.00;98663.36;110326;1273;22312;-69
2023/04/13 03:43:55;;;;;;;7.70;4.20;;;;;;;9.24;100.00;98674.96;110382;1274;23055;-69
2023/04/13 03:46:24;;;;;;;10.70;4.60;;;;;;;9.27;100.00;98684.88;110329;1275;22205;-69
2023/04/13 03:48:53;;;;;;;7.70;4.10;;;;;;;9.26;100.00;98679.39;110358;1272;23560;-69
2023/04/13 03:51:27;;;;;;;8.80;4.40;;;;;;;9.25;100.00;98679.77;110336;1272;23233;-69
2023/04/13 03:53:55;;;;;;;7.50;4.30;;;;;;;9.25;100.00;98676.52;110293;1276;22408;-69
2023/04/13 03:56:25;;;;;;;8.70;4.00;;;;;;;9.25;100.00;98672.98;110292;1276;22383;-69
2023/04/13 03:58:54;;;;;;;10.70;5.00;;;;;;;9.25;100.00;98673.48;110177;1276;22631;-69
2023/04/13 04:01:25;;;;;;;8.90;4.90;;;;;;;9.26;100.00;98671.14;110298;1276;22221;-68
2023/04/13 04:03:56;;;;;;;9.10;4.70;;;;;;;9.26;100.00;98673.32;110368;1276;22435;-69
2023/04/13 04:06:27;;;;;;;8.10;4.70;;;;;;;9.32;100.00;98674.77;110346;1276;22668;-69
2023/04/13 04:09:08;;;;;;;7.90;4.50;;;;;;;9.36;100.00;98675.42;110301;1275;22194;-69
2023/04/13 04:11:42;;;;;;;10.30;3.90;;;;;;;9.35;100.00;98671.59;110346;1276;23363;-69
2023/04/13 04:14:11;;;;;;;9.20;4.00;;;;;;;9.36;100.00;98673.25;110369;1276;22934;-68
2023/04/13 04:16:46;;;;;;;13.80;4.70;;;;;;;9.44;100.00;98676.05;110374;1276;22245;-69
2023/04/13 04:19:16;;;;;;;7.70;4.70;;;;;;;9.51;100.00;98675.90;110314;1276;23147;-69
2023/04/13 04:21:45;;;;;;;7.30;4.80;;;;;;;9.56;100.00;98673.63;110281;1276;22215;-69
2023/04/13 04:24:21;;;;;;;8.90;5.10;;;;;;;9.56;100.00;98683.12;110287;1276;22339;-69
2023/04/13 04:26:53;;;;;;;10.50;5.30;;;;;;;9.56;100.00;98689.48;110378;1276;23235;-69
2023/04/13 04:29:32;;;;;;;10.30;6.00;;;;;;;9.59;100.00;98690.05;107694;1269;24286;-68
2023/04/13 04:32:09;;;;;;;10.90;6.00;;;;;;;9.60;100.00;98692.54;107580;1270;25984;-68
2023/04/13 04:34:39;;;;;;;11.60;6.30;;;;;;;9.61;100.00;98692.04;107586;1276;22514;-68
2023/04/13 04:37:12;;;;;;;9.40;5.60;;;;;;;9.62;100.00;98698.32;107719;1270;25340;-68
2023/04/13 04:39:52;;;;;;;12.40;5.90;;;;;;;9.64;100.00;98704.77;107542;1273;23310;-69
2023/04/13 04:42:20;;;;;;;10.90;6.30;;;;;;;9.57;100.00;98704.47;107738;1272;25379;-69
2023/04/13 04:44:49;;;;;;;12.50;6.10;;;;;;;9.56;100.00;98708.28;107357;1273;25399;-69
2023/04/13 04:47:19;;;;;;;10.10;6.30;;;;;;;9.56;100.00;98710.62;107346;1276;23427;-69
2023/04/13 04:50:13;;;;;;;15.40;6.60;;;;;;;9.53;100.00;98712.71;107361;1270;22541;-70
2023/04/13 04:52:43;;;;;;;8.90;6.00;;;;;;;9.54;100.00;98708.19;107527;1276;22523;-69
2023/04/13 04:55:13;;;;;;;10.20;6.30;;;;;;;9.55;100.00;98711.17;107516;1276;22525;-69
2023/04/13 04:57:45;;;;;;;7.90;6.20;;;;;;;9.55;100.00;98705.64;107620;1273;25427;-69
2023/04/13 05:00:15;;;;;;;9.10;5.90;;;;;;;9.52;100.00;98700.02;107537;1275;22533;-69
2023/04/13 05:02:54;;;;;;;8.30;5.60;;;;;;;9.56;100.00;98699.16;107683;1270;23871;-69
2023/04/13 05:05:26;;;;;;;10.70;5.30;;;;;;;9.57;100.00;98696.64;107703;1274;25535;-69
2023/04/13 05:07:55;;;;;;;11.80;5.30;;;;;;;9.61;100.00;98697.73;107592;1276;23210;-69
2023/04/13 05:10:27;;;;;;;11.40;5.70;;;;;;;9.59;100.00;98701.02;107500;1273;22535;-70
2023/04/13 05:12:57;;;;;;;10.40;5.20;;;;;;;9.60;100.00;98705.80;107573;1276;25492;-71
2023/04/13 05:15:25;;;;;;;10.30;5.20;;;;;;;9.62;100.00;98708.69;107606;1270;22546;-70
2023/04/13 05:17:55;;;;;;;11.70;5.80;;;;;;;9.61;100.00;98706.21;107629;1269;23294;-70
2023/04/13 05:20:23;;;;;;;10.20;6.10;;;;;;;9.61;100.00;98697.23;110401;1275;23062;-68
2023/04/13 05:23:00;;;;;;;9.50;5.70;;;;;;;9.66;100.00;98694.30;110282;1275;22305;-73
2023/04/13 05:25:29;;;;;;;17.30;7.60;;;;;;;9.66;100.00;98690.12;110421;1274;22418;-70
2023/04/13 05:28:00;;;;;;;11.90;6.90;;;;;;;9.64;100.00;98690.09;110315;1272;22243;-71
2023/04/13 05:30:34;;;;;;;13.90;6.40;;;;;;;9.66;100.00;98696.68;110210;1273;22345;-68
2023/04/13 05:33:19;;;;;;;13.40;5.30;;;;;;;9.69;100.00;98699.33;110217;1270;22436;-70
2023/04/13 05:35:51;;;;;;;10.00;5.80;;;;;;;9.70;100.00;98696.91;107838;1270;23242;-70
2023/04/13 05:38:19;;;;;;;8.90;5.20;;;;;;;9.66;100.00;98701.42;107459;1273;23347;-70
2023/04/13 05:40:48;;;;;;;11.30;5.60;;;;;;;9.68;100.00;98704.55;107747;1274;23923;-70
2023/04/13 05:43:16;;;;;;;13.90;5.90;;;;;;;9.76;100.00;98701.24;107716;1272;25309;-70
2023/04/13 05:45:48;;;;;;;10.20;6.30;;;;;;;9.83;100.00;98702.35;107649;1274;24718;-70
2023/04/13 05:48:17;;;;;;;10.60;5.90;;;;;;;9.84;100.00;98703.59;107890;1275;23911;-70
2023/04/13 05:50:47;;;;;;;10.00;5.20;;;;;;;9.85;100.00;98706.77;107263;1265;25299;-70
2023/04/13 05:53:15;;;;;;;8.90;5.00;;;;;;;9.87;100.00;98707.46;107472;1275;22545;-70
2023/04/13 05:55:49;;;;;;;8.80;5.70;;;;;;;9.92;100.00;98710.22;107600;1270;22646;-71
2023/04/13 05:58:20;;;;;;;8.90;5.00;;;;;;;9.95;100.00;98707.52;107627;1275;25331;-70
2023/04/13 06:00:54;;;;;;;10.00;5.40;;;;;;;9.96;100.00;98709.30;107427;1276;25373;-70
2023/04/13 06:03:28;;;;;;;10.20;5.10;;;;;;;9.97;100.00;98714.55;110254;1276;22801;-70
2023/04/13 06:05:58;;;;;;;10.10;5.80;;;;;;;10.02;100.00;98711.66;110362;1275;22210;-71
2023/04/13 06:08:31;;;;;;;11.60;5.70;;;;;;;10.03;100.00;98712.84;110354;1270;22220;-71
2023/04/13 06:11:00;;;;;;;11.30;5.90;;;;;;;10.02;100.00;98713.63;110392;1275;22305;-70
2023/04/13 06:13:34;;;;;;;11.60;6.00;;;;;;;10.05;100.00;98718.41;110446;1275;22226;-70
2023/04/13 06:16:02;;;;;;;10.60;5.80;;;;;;;10.15;100.00;98723.25;110441;1272;22278;-70
2023/04/13 06:18:31;;;;;;;13.60;5.90;;;;;;;10.29;100.00;98725.13;110379;1273;22273;-70
2023/04/13 06:20:59;;;;;;;12.70;6.20;;;;;;;10.32;100.00;98723.23;110286;1276;22213;-70
2023/04/13 06:23:31;;;;;;;10.90;6.10;;;;;;;10.33;100.00;98722.40;110190;1275;22199;-70
2023/04/13 06:26:01;;;;;;;10.20;6.40;;;;;;;10.35;100.00;98726.35;110335;1275;22292;-70
2023/04/13 06:28:47;;;;;;;10.60;6.40;;;;;;;10.38;100.00;98721.73;109211;1275;22600;-70
2023/04/13 06:31:16;;;;;;;11.10;5.90;;;;;;;10.43;100.00;98723.77;107604;1275;24177;-69
2023/04/13 06:33:46;;;;;;;8.60;5.90;;;;;;;10.44;100.00;98721.86;108155;1276;24185;-69
2023/04/13 06:36:18;;;;;;;11.60;6.80;;;;;;;10.43;100.00;98728.02;107635;1275;23668;-70
2023/04/13 06:38:46;;;;;;;11.80;6.50;;;;;;;10.49;100.00;98730.98;107536;1273;22642;-70
2023/04/13 06:41:14;;;;;;;9.20;6.30;;;;;;;10.56;100.00;98728.70;107572;1276;22817;-70
2023/04/13 06:43:45;;;;;;;8.60;5.90;;;;;;;10.70;100.00;98725.42;107396;1275;23526;-70
2023/04/13 06:46:29;;;;;;;10.30;6.20;;;;;;;10.78;100.00;98727.80;107365;1276;24267;-70
2023/04/13 06:49:01;;;;;;;8.80;6.20;;;;;;;10.78;100.00;98725.52;107557;1276;25325;-70
2023/04/13 06:51:32;;;;;;;13.60;6.50;;;;;;;10.78;100.00;98729.27;110374;1275;22317;-70
2023/04/13 06:54:00;;;;;;;12.50;6.50;;;;;;;10.82;100.00;98737.87;110432;1275;22873;-70
2023/04/13 06:56:31;;;;;;;8.70;5.50;;;;;;;10.84;100.00;98742.18;110435;1272;22832;-70
2023/04/13 06:59:01;;;;;;;10.00;5.80;;;;;;;10.86;100.00;98741.89;110292;1276;22455;-70
2023/04/13 07:01:32;;;;;;;12.20;6.50;;;;;;;10.90;100.00;98745.73;110425;1276;22272;-70
2023/04/13 07:04:06;;;;;;;10.50;6.80;;;;;;;10.95;100.00;98744.73;110329;1274;23274;-69
2023/04/13 07:06:35;;;;;;;10.80;6.30;;;;;;;10.95;100.00;98742.80;107741;1275;25441;-70
2023/04/13 07:10:58;;;;;;;10.50;5.90;;;;;;;11.07;100.00;98742.13;104426;1312;546035;-70
2023/04/13 07:13:36;;;;;;;12.60;6.10;;;;;;;11.16;100.00;98742.14;106583;1288;25422;-70
2023/04/13 07:16:07;;;;;;;13.00;6.30;;;;;;;11.30;100.00;98748.14;106766;1285;25399;-70
2023/04/13 07:18:37;;;;;;;8.10;6.10;;;;;;;11.41;100.00;98753.08;106655;1283;25367;-70
2023/04/13 07:21:07;;;;;;;9.60;5.90;;;;;;;11.55;100.00;98754.66;106609;1288;23210;-70
2023/04/13 07:23:55;;;;;;;11.70;6.30;;;;;;;11.66;100.00;98750.19;106482;1286;201081;-70
2023/04/13 07:26:31;;;;;;;11.30;6.40;;;;;;;11.69;100.00;98756.40;106801;1286;24208;-70
2023/04/13 07:29:00;;;;;;;10.50;6.40;;;;;;;11.63;100.00;98759.41;107101;1285;22563;-70
2023/04/13 07:31:31;;;;;;;10.00;6.00;;;;;;;11.67;100.00;98761.41;107020;1279;22948;-71
2023/04/13 07:34:04;;;;;;;17.50;6.50;;;;;;;11.70;100.00;98755.36;106794;1283;25331;-70
2023/04/13 07:36:37;;;;;;;13.30;6.10;;;;;;;11.79;100.00;98747.06;106839;1280;22638;-71
2023/04/13 07:39:10;;;;;;;11.40;5.90;;;;;;;11.87;100.00;98744.82;106654;1285;22660;-71
2023/04/13 07:41:40;;;;;;;8.00;5.90;;;;;;;11.94;100.00;98735.90;106692;1285;22759;-70
2023/04/13 07:44:10;;;;;;;8.90;5.80;;;;;;;11.92;100.00;98728.27;106768;1282;22533;-70
2023/04/13 07:46:41;;;;;;;12.60;6.00;;;;;;;11.82;100.00;98730.27;106833;1282;25334;-70
2023/04/13 07:49:10;;;;;;;12.10;5.90;;;;;;;11.78;100.00;98727.63;106782;1285;24381;-70
2023/04/13 07:51:43;;;;;;;9.00;5.70;;;;;;;11.83;100.00;98725.13;106877;1280;22576;-70
2023/04/13 07:54:16;;;;;;;15.90;7.30;;;;;;;11.88;100.00;98727.20;106645;1285;25513;-69
2023/04/13 07:56:45;;;;;;;15.80;6.60;;;;;;;11.88;100.00;98733.47;106790;1282;25519;-70
2023/04/13 07:59:16;;;;;;;11.90;6.30;;;;;;;11.98;100.00;98733.73;106649;1279;25501;-70
2023/04/13 08:01:45;;;;;;;11.00;5.80;;;;;;;12.18;100.00;98735.08;106736;1279;25018;-70
2023/04/13 08:04:13;;;;;;;12.00;6.00;;;;;;;12.31;100.00;98733.63;106863;1282;22906;-70
2023/04/13 08:06:44;;;;;;;13.60;6.50;;;;;;;12.36;100.00;98733.67;109584;1280;23253;-71
2023/04/13 08:09:13;;;;;;;12.30;6.30;;;;;;;12.37;100.00;98732.83;109987;1275;22347;-71
2023/04/13 08:11:42;;;;;;;14.00;6.40;;;;;;;12.42;100.00;98733.42;109981;1276;22281;-71
2023/04/13 08:14:10;;;;;;;10.70;5.90;;;;;;;12.44;100.00;98732.84;109968;1276;22953;-71
2023/04/13 08:16:40;;;;;;;13.10;6.40;;;;;;;12.51;100.00;98729.97;107648;1275;25488;-70
2023/04/13 08:19:09;;;;;;;13.10;6.50;;;;;;;12.51;100.00;98728.69;107266;1273;24443;-70
2023/04/13 08:21:42;;;;;;;11.70;6.20;;;;;;;12.54;100.00;98728.20;107786;1273;22765;-70
2023/04/13 08:24:10;;;;;;;10.30;6.40;;;;;;;12.54;100.00;98730.55;107289;1273;25375;-69
2023/04/13 08:26:39;;;;;;;12.90;7.50;;;;;;;12.48;100.00;98730.95;107268;1273;22537;-70
2023/04/13 08:29:07;;;;;;;17.40;7.00;;;;;;;12.41;100.00;98727.83;107259;1279;22639;-69
2023/04/13 08:31:42;;;;;;;11.80;6.70;;;;;;;12.36;100.00;98726.30;107259;1279;25318;-70
2023/04/13 08:34:12;;;;;;;13.80;6.90;;;;;;;12.29;100.00;98725.54;107227;1276;22577;-69
2023/04/13 08:36:41;;;;;;;11.50;6.80;;;;;;;12.23;100.00;98728.35;107347;1273;22756;-69
2023/04/13 08:39:12;;;;;;;15.30;6.30;;;;;;;12.23;100.00;98724.36;107250;1274;26128;-69
2023/04/13 08:41:43;;;;;;;11.90;6.60;;;;;;;12.23;100.00;98723.02;107058;1276;24227;-69
2023/04/13 08:44:12;;;;;;;14.40;7.60;;;;;;;12.22;100.00;98723.84;110117;1277;22233;-70
2023/04/13 08:46:50;;;;;;;13.10;6.90;;;;;;;12.21;100.00;98721.26;109940;1279;22220;-70
2023/04/13 08:49:26;;;;;;;18.40;7.10;;;;;;;12.31;100.00;98721.30;109942;1278;22435;-70
2023/04/13 08:52:10;;;;;;;13.40;6.70;;;;;;;12.47;100.00;98719.67;109971;1277;23048;-70
2023/04/13 08:54:43;;;;;;;15.20;6.80;;;;;;;12.51;100.00;98720.18;109957;1258;22293;-70
2023/04/13 08:57:19;;;;;;;16.00;6.80;;;;;;;12.53;100.00;98720.25;110111;1273;22230;-70
2023/04/13 08:59:53;;;;;;;12.80;7.20;;;;;;;12.62;100.00;98714.84;109975;1278;22352;-70
2023/04/13 09:02:30;;;;;;;10.00;6.20;;;;;;;12.67;100.00;98710.65;110010;1273;22332;-69
2023/04/13 09:05:04;;;;;;;11.10;6.40;;;;;;;12.77;100.00;98707.98;107913;1279;22595;-69
2023/04/13 09:07:35;;;;;;;10.60;5.60;;;;;;;12.88;100.00;98710.83;107665;1273;22523;-69
2023/04/13 09:10:09;;;;;;;15.10;6.30;;;;;;;12.87;100.00;98708.66;107204;1278;25325;-70
2023/04/13 09:12:40;;;;;;;11.50;6.50;;;;;;;12.81;100.00;98703.77;107308;1279;22546;-70
2023/04/13 09:15:10;;;;;;;12.40;6.70;;;;;;;12.92;100.00;98705.09;107251;1279;25499;-69
2023/04/13 09:17:47;;;;;;;11.00;6.50;;;;;;;13.04;100.00;98701.35;107323;1278;25338;-70
2023/04/13 09:20:21;;;;;;;12.90;6.80;;;;;;;13.09;100.00;98704.73;107171;1278;25220;-70
2023/04/13 09:22:50;;;;;;;9.00;5.60;;;;;;;13.11;100.00;98703.44;110147;1279;22292;-70
2023/04/13 09:25:23;;;;;;;11.90;5.90;;;;;;;13.13;100.00;98704.81;110021;1270;22345;-70
2023/04/13 09:27:57;;;;;;;12.40;6.20;;;;;;;13.12;100.00;98701.81;110094;1274;22344;-70
2023/04/13 09:30:28;;;;;;;12.30;7.50;;;;;;;13.16;100.00;98698.55;110104;1279;22274;-70
2023/04/13 09:33:15;;;;;;;14.20;6.80;;;;;;;13.12;100.00;98689.85;110130;1279;22364;-70
2023/04/13 09:35:48;;;;;;;14.00;6.70;;;;;;;13.14;100.00;98694.39;110084;1273;22461;-70
2023/04/13 09:38:18;;;;;;;12.00;7.20;;;;;;;13.15;100.00;98689.48;110127;1278;22249;-70
2023/04/13 09:40:47;;;;;;;13.10;6.50;;;;;;;13.18;100.00;98684.17;110049;1273;22186;-70
2023/04/13 09:43:16;;;;;;;13.30;6.00;;;;;;;13.23;100.00;98682.45;109108;1276;22627;-70
2023/04/13 09:45:45;;;;;;;8.80;5.60;;;;;;;13.25;100.00;98684.96;107302;1274;26136;-69
2023/04/13 09:48:19;;;;;;;18.80;6.20;;;;;;;13.21;100.00;98685.08;107396;1273;25452;-69
2023/04/13 09:50:58;;;;;;;12.60;6.30;;;;;;;13.15;100.00;98685.14;107651;1275;25220;-70
2023/04/13 09:53:38;;;;;;;9.30;5.50;;;;;;;13.08;100.00;98682.84;107488;1271;25343;-71
2023/04/13 09:56:07;;;;;;;11.30;5.60;;;;;;;13.13;100.00;98684.96;107487;1276;23561;-70
2023/04/13 09:58:43;;;;;;;13.20;6.20;;;;;;;13.19;100.00;98685.96;107502;1275;22533;-69
2023/04/13 10:01:14;;;;;;;10.90;5.50;;;;;;;13.14;100.00;98689.86;107576;1273;24009;-70
2023/04/13 10:03:44;;;;;;;15.40;6.70;;;;;;;13.18;100.00;98694.73;107444;1272;25315;-69
2023/04/13 10:06:13;;;;;;;13.10;5.40;;;;;;;13.24;100.00;98693.67;108048;1270;25358;-69
2023/04/13 10:08:42;;;;;;;11.20;5.70;;;;;;;13.23;100.00;98693.39;107660;1273;25388;-69
2023/04/13 10:11:15;;;;;;;12.10;6.30;;;;;;;13.20;100.00;98690.73;107664;1264;22554;-70
2023/04/13 10:13:48;;;;;;;10.90;5.90;;;;;;;13.19;100.00;98692.73;107614;1270;23064;-69
2023/04/13 10:16:36;;;;;;;11.10;5.80;;;;;;;13.13;100.00;98691.41;107472;1270;23235;-69
2023/04/13 10:19:11;;;;;;;;;;;;;;;13.19;100.00;98695.39;107596;1275;25487;-70
2023/04/13 10:21:42;;;;;;;10.50;5.90;;;;;;;13.25;100.00;98693.55;107577;1275;24320;-70
2023/04/13 10:24:13;;;;;;;8.80;5.80;;;;;;;13.23;100.00;98694.92;107245;1276;25318;-70
2023/04/13 10:26:43;;;;;;;9.50;5.40;;;;;;;13.24;100.00;98699.52;107375;1276;22591;-70
2023/04/13 10:29:13;;;;;;;13.00;6.10;;;;;;;13.27;100.00;98694.70;107351;1271;25406;-70
2023/04/13 10:31:46;;;;;;;10.50;5.60;;;;;;;13.24;100.00;98694.70;110377;1268;22513;-70
2023/04/13 10:34:26;;;;;;;10.20;5.20;;;;;;;13.28;100.00;98691.52;110414;1276;22590;-71
2023/04/13 10:36:57;;;;;;;11.60;5.00;;;;;;;13.30;100.00;98692.42;110430;1272;22373;-71
2023/04/13 10:39:26;;;;;;;10.00;5.00;;;;;;;13.36;100.00;98691.12;110451;1269;22330;-70
2023/04/13 10:42:05;;;;;;;8.90;4.20;;;;;;;13.37;100.00;98689.34;110383;1273;22198;-71
2023/04/13 10:44:51;;;;;;;7.70;4.50;;;;;;;13.49;100.00;98694.91;110372;1275;22196;-71
2023/04/13 10:47:34;;;;;;;13.90;5.00;;;;;;;13.60;100.00;98695.30;110273;1270;22673;-70
2023/04/13 10:50:03;;;;;;;13.90;5.50;;;;;;;13.58;100.00;98690.12;110352;1270;22412;-72
2023/04/13 10:52:31;;;;;;;9.10;4.90;;;;;;;13.55;100.00;98686.82;109633;1275;22883;-70
2023/04/13 10:55:00;;;;;;;12.20;4.50;;;;;;;13.51;100.00;98686.14;107501;1271;25459;-71
2023/04/13 10:57:33;;;;;;;8.30;3.80;;;;;;;13.49;100.00;98687.38;107392;1275;22995;-70
2023/04/13 11:00:02;;;;;;;10.60;5.10;;;;;;;13.56;100.00;98687.34;107561;1273;26465;-71
2023/04/13 11:02:34;;;;;;;11.40;4.70;;;;;;;13.62;100.00;98690.94;110354;1276;23245;-71
2023/04/13 11:05:03;;;;;;;14.40;5.20;;;;;;;13.70;100.00;98692.09;110286;1273;22334;-70
2023/04/13 11:07:32;;;;;;;11.20;4.40;;;;;;;13.72;100.00;98692.52;110331;1273;22248;-71
2023/04/13 11:10:01;;;;;;;11.40;4.60;;;;;;;13.72;100.00;98691.55;110388;1271;22577;-72
2023/04/13 11:12:31;;;;;;;9.80;4.50;;;;;;;13.75;100.00;98691.55;110305;1270;22381;-72
2023/04/13 11:15:02;;;;;;;10.50;4.60;;;;;;;13.68;100.00;98692.11;110429;1269;22427;-72
2023/04/13 11:17:32;;;;;;;7.00;4.20;;;;;;;13.70;100.00;98693.83;110344;1269;22311;-72
2023/04/13 11:20:01;;;;;;;12.70;5.40;;;;;;;13.77;100.00;98701.29;110317;1269;22486;-72
2023/04/13 11:22:35;;;;;;;13.70;5.00;;;;;;;13.68;100.00;98697.17;110326;1273;22330;-72
2023/04/13 11:25:05;;;;;;;9.10;4.90;;;;;;;13.58;100.00;98695.34;110379;1273;23400;-72
2023/04/13 11:27:34;;;;;;;13.90;5.50;;;;;;;13.57;100.00;98700.05;110240;1275;22392;-70
2023/04/13 11:30:06;;;;;;;12.90;5.30;;;;;;;13.59;100.00;98697.02;110380;1276;22201;-70
2023/04/13 11:32:38;;;;;;;10.70;5.00;;;;;;;13.61;100.00;98691.68;110371;1272;22350;-71
2023/04/13 11:35:13;;;;;;;13.50;6.30;;;;;;;13.54;100.00;98692.16;110350;1270;22220;-70
2023/04/13 11:37:45;;;;;;;14.10;5.70;;;;;;;13.50;100.00;98694.17;110374;1275;22216;-70
2023/04/13 11:40:24;;;;;;;17.70;6.30;;;;;;;13.52;100.00;98695.50;110343;1274;22878;-70